sensor_id;sensor_type;location;lat;lon;timestamp;P1;durP1;ratioP1;P2;durP2;ratioP2
12792;SDS011;6460;42.684;23.260;2023-01-10T00:01:42;28.60;;;17.03;;
12792;SDS011;6460;42.684;23.260;2023-01-10T00:04:09;29.03;;;16.30;;
12792;SDS011;6460;42.684;23.260;2023-01-10T00:06:36;28.20;;;16.77;;
12792;SDS011;6460;42.684;23.260;2023-01-10T00:09:03;26.03;;;16.50;;
12792;SDS011;6460;42.684;23.260;2023-01-10T00:11:30;27.07;;;15.63;;
12792;SDS011;6460;42.684;23.260;2023-01-10T00:14:16;24.00;;;15.37;;
12792;SDS011;6460;42.684;23.260;2023-01-10T00:16:43;27.67;;;15.70;;
12792;SDS011;6460;42.684;23.260;2023-01-10T00:19:10;27.70;;;15.93;;
12792;SDS011;6460;42.684;23.260;2023-01-10T00:21:37;24.27;;;15.07;;
12792;SDS011;6460;42.684;23.260;2023-01-10T00:24:05;25.50;;;16.10;;
12792;SDS011;6460;42.684;23.260;2023-01-10T00:26:40;25.10;;;15.53;;
12792;SDS011;6460;42.684;23.260;2023-01-10T00:29:10;25.73;;;15.57;;
12792;SDS011;6460;42.684;23.260;2023-01-10T00:31:39;27.13;;;15.83;;
12792;SDS011;6460;42.684;23.260;2023-01-10T00:34:06;25.87;;;15.30;;
12792;SDS011;6460;42.684;23.260;2023-01-10T00:36:33;26.03;;;15.63;;
12792;SDS011;6460;42.684;23.260;2023-01-10T00:39:00;24.60;;;16.03;;
12792;SDS011;6460;42.684;23.260;2023-01-10T00:41:32;24.87;;;15.37;;
12792;SDS011;6460;42.684;23.260;2023-01-10T00:44:15;26.10;;;15.40;;
12792;SDS011;6460;42.684;23.260;2023-01-10T00:46:44;23.70;;;14.80;;
12792;SDS011;6460;42.684;23.260;2023-01-10T00:49:11;23.90;;;15.60;;
12792;SDS011;6460;42.684;23.260;2023-01-10T00:51:40;25.73;;;15.70;;
12792;SDS011;6460;42.684;23.260;2023-01-10T00:54:07;21.43;;;13.53;;
12792;SDS011;6460;42.684;23.260;2023-01-10T00:56:35;23.87;;;14.20;;
12792;SDS011;6460;42.684;23.260;2023-01-10T00:59:02;23.40;;;14.57;;
12792;SDS011;6460;42.684;23.260;2023-01-10T01:01:29;26.07;;;14.87;;
12792;SDS011;6460;42.684;23.260;2023-01-10T01:03:58;25.57;;;15.37;;
12792;SDS011;6460;42.684;23.260;2023-01-10T01:06:25;23.17;;;14.90;;
12792;SDS011;6460;42.684;23.260;2023-01-10T01:08:52;24.27;;;14.37;;
12792;SDS011;6460;42.684;23.260;2023-01-10T01:11:20;23.30;;;14.13;;
12792;SDS011;6460;42.684;23.260;2023-01-10T01:13:47;24.10;;;14.13;;
12792;SDS011;6460;42.684;23.260;2023-01-10T01:16:14;24.50;;;14.83;;
12792;SDS011;6460;42.684;23.260;2023-01-10T01:18:42;26.97;;;15.60;;
12792;SDS011;6460;42.684;23.260;2023-01-10T01:21:11;21.33;;;14.07;;
12792;SDS011;6460;42.684;23.260;2023-01-10T01:23:38;23.80;;;14.03;;
12792;SDS011;6460;42.684;23.260;2023-01-10T01:26:05;23.93;;;14.77;;
12792;SDS011;6460;42.684;23.260;2023-01-10T01:28:32;22.13;;;14.20;;
12792;SDS011;6460;42.684;23.260;2023-01-10T01:31:05;22.37;;;14.03;;
12792;SDS011;6460;42.684;23.260;2023-01-10T01:33:33;22.90;;;14.20;;
12792;SDS011;6460;42.684;23.260;2023-01-10T01:36:00;24.23;;;14.83;;
12792;SDS011;6460;42.684;23.260;2023-01-10T01:38:29;20.77;;;14.23;;
12792;SDS011;6460;42.684;23.260;2023-01-10T01:40:56;22.23;;;14.60;;
12792;SDS011;6460;42.684;23.260;2023-01-10T01:43:24;20.97;;;13.70;;
12792;SDS011;6460;42.684;23.260;2023-01-10T01:45:53;22.23;;;13.73;;
12792;SDS011;6460;42.684;23.260;2023-01-10T01:48:26;23.10;;;14.53;;
12792;SDS011;6460;42.684;23.260;2023-01-10T01:51:00;21.33;;;13.80;;
12792;SDS011;6460;42.684;23.260;2023-01-10T01:53:34;23.47;;;14.67;;
12792;SDS011;6460;42.684;23.260;2023-01-10T01:56:06;19.20;;;13.53;;
12792;SDS011;6460;42.684;23.260;2023-01-10T01:58:38;21.90;;;13.97;;
12792;SDS011;6460;42.684;23.260;2023-01-10T02:01:09;21.57;;;14.13;;
12792;SDS011;6460;42.684;23.260;2023-01-10T02:03:38;21.00;;;12.70;;
12792;SDS011;6460;42.684;23.260;2023-01-10T02:06:07;21.43;;;12.97;;
12792;SDS011;6460;42.684;23.260;2023-01-10T02:08:36;22.17;;;13.20;;
12792;SDS011;6460;42.684;23.260;2023-01-10T02:11:07;23.70;;;13.87;;
12792;SDS011;6460;42.684;23.260;2023-01-10T02:13:36;20.43;;;13.33;;
12792;SDS011;6460;42.684;23.260;2023-01-10T02:16:07;22.13;;;14.10;;
12792;SDS011;6460;42.684;23.260;2023-01-10T02:18:36;21.87;;;14.50;;
12792;SDS011;6460;42.684;23.260;2023-01-10T02:21:11;21.20;;;13.73;;
12792;SDS011;6460;42.684;23.260;2023-01-10T02:27:03;23.20;;;14.47;;
12792;SDS011;6460;42.684;23.260;2023-01-10T02:32:53;23.13;;;13.53;;
12792;SDS011;6460;42.684;23.260;2023-01-10T02:35:28;22.50;;;13.70;;
12792;SDS011;6460;42.684;23.260;2023-01-10T02:38:13;19.63;;;12.73;;
12792;SDS011;6460;42.684;23.260;2023-01-10T02:40:46;20.30;;;12.97;;
12792;SDS011;6460;42.684;23.260;2023-01-10T02:43:21;19.47;;;13.17;;
12792;SDS011;6460;42.684;23.260;2023-01-10T02:45:53;21.03;;;13.20;;
12792;SDS011;6460;42.684;23.260;2023-01-10T02:48:26;19.40;;;13.13;;
12792;SDS011;6460;42.684;23.260;2023-01-10T02:50:54;20.50;;;13.47;;
12792;SDS011;6460;42.684;23.260;2023-01-10T02:53:27;19.43;;;12.97;;
12792;SDS011;6460;42.684;23.260;2023-01-10T02:56:02;18.73;;;13.17;;
12792;SDS011;6460;42.684;23.260;2023-01-10T02:59:06;21.43;;;13.20;;
12792;SDS011;6460;42.684;23.260;2023-01-10T03:01:55;18.50;;;12.73;;
12792;SDS011;6460;42.684;23.260;2023-01-10T03:04:36;19.83;;;13.40;;
12792;SDS011;6460;42.684;23.260;2023-01-10T03:07:14;17.50;;;12.10;;
12792;SDS011;6460;42.684;23.260;2023-01-10T03:09:48;20.70;;;13.87;;
12792;SDS011;6460;42.684;23.260;2023-01-10T03:12:22;20.63;;;13.87;;
12792;SDS011;6460;42.684;23.260;2023-01-10T03:14:52;20.47;;;13.77;;
12792;SDS011;6460;42.684;23.260;2023-01-10T03:17:22;22.57;;;14.33;;
12792;SDS011;6460;42.684;23.260;2023-01-10T03:19:55;18.77;;;13.30;;
12792;SDS011;6460;42.684;23.260;2023-01-10T03:22:24;21.03;;;14.33;;
12792;SDS011;6460;42.684;23.260;2023-01-10T03:24:55;22.00;;;15.10;;
12792;SDS011;6460;42.684;23.260;2023-01-10T03:27:26;24.13;;;15.83;;
12792;SDS011;6460;42.684;23.260;2023-01-10T03:30:04;24.57;;;16.53;;
12792;SDS011;6460;42.684;23.260;2023-01-10T03:32:37;24.63;;;16.70;;
12792;SDS011;6460;42.684;23.260;2023-01-10T03:35:07;25.73;;;17.17;;
12792;SDS011;6460;42.684;23.260;2023-01-10T03:37:37;28.57;;;18.23;;
12792;SDS011;6460;42.684;23.260;2023-01-10T03:40:12;27.33;;;17.97;;
12792;SDS011;6460;42.684;23.260;2023-01-10T03:42:47;24.50;;;16.73;;
12792;SDS011;6460;42.684;23.260;2023-01-10T03:45:39;25.63;;;17.37;;
12792;SDS011;6460;42.684;23.260;2023-01-10T03:48:10;22.87;;;15.73;;
12792;SDS011;6460;42.684;23.260;2023-01-10T03:50:42;24.73;;;15.27;;
12792;SDS011;6460;42.684;23.260;2023-01-10T03:53:11;24.10;;;15.73;;
12792;SDS011;6460;42.684;23.260;2023-01-10T03:55:40;25.13;;;15.97;;
12792;SDS011;6460;42.684;23.260;2023-01-10T03:58:10;23.40;;;16.13;;
12792;SDS011;6460;42.684;23.260;2023-01-10T04:00:37;20.47;;;14.57;;
12792;SDS011;6460;42.684;23.260;2023-01-10T04:03:06;20.47;;;14.10;;
12792;SDS011;6460;42.684;23.260;2023-01-10T04:05:34;22.23;;;14.80;;
12792;SDS011;6460;42.684;23.260;2023-01-10T04:08:03;21.90;;;14.37;;
12792;SDS011;6460;42.684;23.260;2023-01-10T04:10:30;20.27;;;13.50;;
12792;SDS011;6460;42.684;23.260;2023-01-10T04:12:58;19.53;;;13.60;;
12792;SDS011;6460;42.684;23.260;2023-01-10T04:15:25;19.13;;;13.27;;
12792;SDS011;6460;42.684;23.260;2023-01-10T04:17:53;20.57;;;13.30;;
12792;SDS011;6460;42.684;23.260;2023-01-10T04:20:21;20.30;;;13.50;;
12792;SDS011;6460;42.684;23.260;2023-01-10T04:22:49;22.43;;;14.67;;
12792;SDS011;6460;42.684;23.260;2023-01-10T04:25:18;21.67;;;14.87;;
12792;SDS011;6460;42.684;23.260;2023-01-10T04:27:45;18.87;;;14.00;;
12792;SDS011;6460;42.684;23.260;2023-01-10T04:30:14;19.67;;;13.93;;
12792;SDS011;6460;42.684;23.260;2023-01-10T04:32:42;23.93;;;15.40;;
12792;SDS011;6460;42.684;23.260;2023-01-10T04:35:09;23.17;;;15.37;;
12792;SDS011;6460;42.684;23.260;2023-01-10T04:37:36;22.67;;;15.17;;
12792;SDS011;6460;42.684;23.260;2023-01-10T04:40:04;22.57;;;15.33;;
12792;SDS011;6460;42.684;23.260;2023-01-10T04:42:33;21.00;;;14.53;;
12792;SDS011;6460;42.684;23.260;2023-01-10T04:45:01;21.97;;;14.27;;
12792;SDS011;6460;42.684;23.260;2023-01-10T04:47:28;24.97;;;14.53;;
12792;SDS011;6460;42.684;23.260;2023-01-10T04:49:55;20.37;;;13.33;;
12792;SDS011;6460;42.684;23.260;2023-01-10T04:52:22;18.83;;;13.53;;
12792;SDS011;6460;42.684;23.260;2023-01-10T04:54:52;19.43;;;13.70;;
12792;SDS011;6460;42.684;23.260;2023-01-10T04:57:19;21.00;;;14.23;;
12792;SDS011;6460;42.684;23.260;2023-01-10T04:59:48;24.70;;;15.07;;
12792;SDS011;6460;42.684;23.260;2023-01-10T05:02:15;24.60;;;15.37;;
12792;SDS011;6460;42.684;23.260;2023-01-10T05:04:42;23.17;;;14.63;;
12792;SDS011;6460;42.684;23.260;2023-01-10T05:07:09;19.53;;;14.23;;
12792;SDS011;6460;42.684;23.260;2023-01-10T05:09:36;21.17;;;13.83;;
12792;SDS011;6460;42.684;23.260;2023-01-10T05:12:03;19.77;;;13.73;;
12792;SDS011;6460;42.684;23.260;2023-01-10T05:14:30;19.20;;;13.20;;
12792;SDS011;6460;42.684;23.260;2023-01-10T05:16:59;24.23;;;14.57;;
12792;SDS011;6460;42.684;23.260;2023-01-10T05:19:26;21.13;;;13.87;;
12792;SDS011;6460;42.684;23.260;2023-01-10T05:21:53;21.87;;;13.70;;
12792;SDS011;6460;42.684;23.260;2023-01-10T05:24:21;20.47;;;12.00;;
12792;SDS011;6460;42.684;23.260;2023-01-10T05:26:48;18.63;;;12.77;;
12792;SDS011;6460;42.684;23.260;2023-01-10T05:29:15;20.13;;;13.03;;
12792;SDS011;6460;42.684;23.260;2023-01-10T05:31:42;17.47;;;12.87;;
12792;SDS011;6460;42.684;23.260;2023-01-10T05:34:11;19.23;;;12.80;;
12792;SDS011;6460;42.684;23.260;2023-01-10T05:36:39;19.53;;;12.67;;
12792;SDS011;6460;42.684;23.260;2023-01-10T05:39:06;18.83;;;13.00;;
12792;SDS011;6460;42.684;23.260;2023-01-10T05:41:33;21.07;;;14.20;;
12792;SDS011;6460;42.684;23.260;2023-01-10T05:44:01;18.10;;;12.87;;
12792;SDS011;6460;42.684;23.260;2023-01-10T05:46:28;20.03;;;13.67;;
12792;SDS011;6460;42.684;23.260;2023-01-10T05:48:55;19.70;;;13.67;;
12792;SDS011;6460;42.684;23.260;2023-01-10T05:51:24;20.50;;;13.00;;
12792;SDS011;6460;42.684;23.260;2023-01-10T05:53:51;21.13;;;12.47;;
12792;SDS011;6460;42.684;23.260;2023-01-10T05:56:18;20.67;;;13.17;;
12792;SDS011;6460;42.684;23.260;2023-01-10T05:58:45;18.87;;;13.10;;
12792;SDS011;6460;42.684;23.260;2023-01-10T06:01:12;19.37;;;13.13;;
12792;SDS011;6460;42.684;23.260;2023-01-10T06:03:39;20.63;;;13.53;;
12792;SDS011;6460;42.684;23.260;2023-01-10T06:06:06;17.17;;;12.40;;
12792;SDS011;6460;42.684;23.260;2023-01-10T06:08:35;17.40;;;12.40;;
12792;SDS011;6460;42.684;23.260;2023-01-10T06:11:02;17.87;;;12.50;;
12792;SDS011;6460;42.684;23.260;2023-01-10T06:13:29;18.47;;;12.37;;
12792;SDS011;6460;42.684;23.260;2023-01-10T06:15:56;19.53;;;12.93;;
12792;SDS011;6460;42.684;23.260;2023-01-10T06:18:23;19.53;;;12.73;;
12792;SDS011;6460;42.684;23.260;2023-01-10T06:20:51;17.50;;;12.57;;
12792;SDS011;6460;42.684;23.260;2023-01-10T06:23:18;18.07;;;12.43;;
12792;SDS011;6460;42.684;23.260;2023-01-10T06:25:47;16.90;;;12.20;;
12792;SDS011;6460;42.684;23.260;2023-01-10T06:28:14;18.47;;;12.73;;
12792;SDS011;6460;42.684;23.260;2023-01-10T06:30:41;23.37;;;16.20;;
12792;SDS011;6460;42.684;23.260;2023-01-10T06:33:08;20.63;;;13.80;;
12792;SDS011;6460;42.684;23.260;2023-01-10T06:35:36;19.20;;;13.90;;
12792;SDS011;6460;42.684;23.260;2023-01-10T06:38:03;18.83;;;13.07;;
12792;SDS011;6460;42.684;23.260;2023-01-10T06:40:30;17.50;;;12.90;;
12792;SDS011;6460;42.684;23.260;2023-01-10T06:42:59;19.27;;;13.57;;
12792;SDS011;6460;42.684;23.260;2023-01-10T06:45:26;21.77;;;14.77;;
12792;SDS011;6460;42.684;23.260;2023-01-10T06:47:53;21.87;;;14.67;;
12792;SDS011;6460;42.684;23.260;2023-01-10T06:50:21;23.37;;;15.87;;
12792;SDS011;6460;42.684;23.260;2023-01-10T06:52:53;20.47;;;15.33;;
12792;SDS011;6460;42.684;23.260;2023-01-10T06:55:21;21.53;;;15.27;;
12792;SDS011;6460;42.684;23.260;2023-01-10T06:57:53;18.23;;;14.13;;
12792;SDS011;6460;42.684;23.260;2023-01-10T07:00:23;18.90;;;13.87;;
12792;SDS011;6460;42.684;23.260;2023-01-10T07:02:52;21.37;;;14.17;;
12792;SDS011;6460;42.684;23.260;2023-01-10T07:05:20;21.80;;;15.60;;
12792;SDS011;6460;42.684;23.260;2023-01-10T07:07:47;23.23;;;15.77;;
12792;SDS011;6460;42.684;23.260;2023-01-10T07:10:14;20.93;;;14.73;;
12792;SDS011;6460;42.684;23.260;2023-01-10T07:12:42;27.97;;;17.23;;
12792;SDS011;6460;42.684;23.260;2023-01-10T07:15:09;25.47;;;17.23;;
12792;SDS011;6460;42.684;23.260;2023-01-10T07:17:38;23.07;;;15.93;;
12792;SDS011;6460;42.684;23.260;2023-01-10T07:20:06;24.30;;;16.90;;
12792;SDS011;6460;42.684;23.260;2023-01-10T07:22:34;30.83;;;24.93;;
12792;SDS011;6460;42.684;23.260;2023-01-10T07:25:01;30.87;;;24.23;;
12792;SDS011;6460;42.684;23.260;2023-01-10T07:27:29;31.40;;;19.80;;
12792;SDS011;6460;42.684;23.260;2023-01-10T07:29:57;35.60;;;24.43;;
12792;SDS011;6460;42.684;23.260;2023-01-10T07:32:24;74.57;;;49.10;;
12792;SDS011;6460;42.684;23.260;2023-01-10T07:34:53;56.17;;;34.40;;
12792;SDS011;6460;42.684;23.260;2023-01-10T07:37:20;42.73;;;23.10;;
12792;SDS011;6460;42.684;23.260;2023-01-10T07:39:47;36.90;;;20.43;;
12792;SDS011;6460;42.684;23.260;2023-01-10T07:42:14;34.93;;;19.63;;
12792;SDS011;6460;42.684;23.260;2023-01-10T07:44:41;32.87;;;17.43;;
12792;SDS011;6460;42.684;23.260;2023-01-10T07:47:08;31.77;;;18.67;;
12792;SDS011;6460;42.684;23.260;2023-01-10T07:49:36;32.53;;;18.40;;
12792;SDS011;6460;42.684;23.260;2023-01-10T07:52:04;36.43;;;22.80;;
12792;SDS011;6460;42.684;23.260;2023-01-10T07:54:33;38.40;;;27.73;;
12792;SDS011;6460;42.684;23.260;2023-01-10T07:57:00;40.57;;;28.00;;
12792;SDS011;6460;42.684;23.260;2023-01-10T07:59:27;33.27;;;21.33;;
12792;SDS011;6460;42.684;23.260;2023-01-10T08:01:55;32.33;;;22.67;;
12792;SDS011;6460;42.684;23.260;2023-01-10T08:04:22;31.33;;;21.53;;
12792;SDS011;6460;42.684;23.260;2023-01-10T08:06:49;30.63;;;21.13;;
12792;SDS011;6460;42.684;23.260;2023-01-10T08:09:18;32.07;;;21.90;;
12792;SDS011;6460;42.684;23.260;2023-01-10T08:11:45;31.67;;;21.87;;
12792;SDS011;6460;42.684;23.260;2023-01-10T08:14:12;34.67;;;21.87;;
12792;SDS011;6460;42.684;23.260;2023-01-10T08:16:39;33.23;;;20.90;;
12792;SDS011;6460;42.684;23.260;2023-01-10T08:19:07;32.50;;;20.30;;
12792;SDS011;6460;42.684;23.260;2023-01-10T08:21:34;30.87;;;20.87;;
12792;SDS011;6460;42.684;23.260;2023-01-10T08:24:02;29.67;;;20.17;;
12792;SDS011;6460;42.684;23.260;2023-01-10T08:26:30;32.03;;;21.10;;
12792;SDS011;6460;42.684;23.260;2023-01-10T08:29:01;37.73;;;24.80;;
12792;SDS011;6460;42.684;23.260;2023-01-10T08:31:28;113.73;;;77.33;;
12792;SDS011;6460;42.684;23.260;2023-01-10T08:33:55;34.63;;;21.87;;
12792;SDS011;6460;42.684;23.260;2023-01-10T08:36:22;35.97;;;23.20;;
12792;SDS011;6460;42.684;23.260;2023-01-10T08:38:49;40.77;;;24.67;;
12792;SDS011;6460;42.684;23.260;2023-01-10T08:41:16;36.27;;;23.43;;
12792;SDS011;6460;42.684;23.260;2023-01-10T08:43:44;32.03;;;21.83;;
12792;SDS011;6460;42.684;23.260;2023-01-10T08:46:14;37.80;;;23.70;;
12792;SDS011;6460;42.684;23.260;2023-01-10T08:48:41;36.67;;;24.17;;
12792;SDS011;6460;42.684;23.260;2023-01-10T08:51:08;41.37;;;25.77;;
12792;SDS011;6460;42.684;23.260;2023-01-10T08:53:37;34.97;;;23.87;;
12792;SDS011;6460;42.684;23.260;2023-01-10T08:56:05;39.83;;;25.10;;
12792;SDS011;6460;42.684;23.260;2023-01-10T08:58:32;34.70;;;22.77;;
12792;SDS011;6460;42.684;23.260;2023-01-10T09:01:02;36.87;;;23.70;;
12792;SDS011;6460;42.684;23.260;2023-01-10T09:03:29;37.83;;;23.77;;
12792;SDS011;6460;42.684;23.260;2023-01-10T09:05:57;35.60;;;23.07;;
12792;SDS011;6460;42.684;23.260;2023-01-10T09:08:24;36.43;;;23.70;;
12792;SDS011;6460;42.684;23.260;2023-01-10T09:10:51;35.47;;;24.10;;
12792;SDS011;6460;42.684;23.260;2023-01-10T09:13:18;38.90;;;24.00;;
12792;SDS011;6460;42.684;23.260;2023-01-10T09:15:45;40.47;;;25.47;;
12792;SDS011;6460;42.684;23.260;2023-01-10T09:18:13;35.67;;;23.13;;
12792;SDS011;6460;42.684;23.260;2023-01-10T09:20:40;33.83;;;22.30;;
12792;SDS011;6460;42.684;23.260;2023-01-10T09:23:08;31.17;;;20.63;;
12792;SDS011;6460;42.684;23.260;2023-01-10T09:25:41;29.97;;;21.27;;
12792;SDS011;6460;42.684;23.260;2023-01-10T09:28:08;34.47;;;21.83;;
12792;SDS011;6460;42.684;23.260;2023-01-10T09:30:36;34.30;;;22.03;;
12792;SDS011;6460;42.684;23.260;2023-01-10T09:33:04;37.50;;;22.20;;
12792;SDS011;6460;42.684;23.260;2023-01-10T09:35:35;35.80;;;22.10;;
12792;SDS011;6460;42.684;23.260;2023-01-10T09:38:04;41.03;;;25.67;;
12792;SDS011;6460;42.684;23.260;2023-01-10T09:40:36;34.80;;;22.33;;
12792;SDS011;6460;42.684;23.260;2023-01-10T09:43:14;35.60;;;22.17;;
12792;SDS011;6460;42.684;23.260;2023-01-10T09:45:47;38.30;;;22.23;;
12792;SDS011;6460;42.684;23.260;2023-01-10T09:48:23;39.20;;;24.07;;
12792;SDS011;6460;42.684;23.260;2023-01-10T09:51:03;35.50;;;22.50;;
12792;SDS011;6460;42.684;23.260;2023-01-10T09:53:40;39.03;;;23.73;;
12792;SDS011;6460;42.684;23.260;2023-01-10T09:56:09;39.10;;;23.30;;
12792;SDS011;6460;42.684;23.260;2023-01-10T09:58:39;42.50;;;23.53;;
12792;SDS011;6460;42.684;23.260;2023-01-10T10:01:10;40.13;;;24.37;;
12792;SDS011;6460;42.684;23.260;2023-01-10T10:03:43;44.90;;;23.80;;
12792;SDS011;6460;42.684;23.260;2023-01-10T10:06:15;45.07;;;27.00;;
12792;SDS011;6460;42.684;23.260;2023-01-10T10:08:43;45.17;;;25.73;;
12792;SDS011;6460;42.684;23.260;2023-01-10T10:11:21;42.50;;;25.23;;
12792;SDS011;6460;42.684;23.260;2023-01-10T10:14:05;43.67;;;25.17;;
12792;SDS011;6460;42.684;23.260;2023-01-10T10:16:40;40.90;;;24.90;;
12792;SDS011;6460;42.684;23.260;2023-01-10T10:19:21;39.10;;;23.67;;
12792;SDS011;6460;42.684;23.260;2023-01-10T10:21:57;42.13;;;24.53;;
12792;SDS011;6460;42.684;23.260;2023-01-10T10:24:37;42.07;;;24.57;;
12792;SDS011;6460;42.684;23.260;2023-01-10T10:27:17;40.87;;;25.27;;
12792;SDS011;6460;42.684;23.260;2023-01-10T10:29:51;41.97;;;25.07;;
12792;SDS011;6460;42.684;23.260;2023-01-10T10:32:34;41.37;;;25.40;;
12792;SDS011;6460;42.684;23.260;2023-01-10T10:35:12;40.23;;;24.60;;
12792;SDS011;6460;42.684;23.260;2023-01-10T10:37:45;42.67;;;25.03;;
12792;SDS011;6460;42.684;23.260;2023-01-10T10:40:17;37.77;;;23.90;;
12792;SDS011;6460;42.684;23.260;2023-01-10T10:42:47;41.23;;;23.80;;
12792;SDS011;6460;42.684;23.260;2023-01-10T10:45:17;35.57;;;21.97;;
12792;SDS011;6460;42.684;23.260;2023-01-10T10:47:49;39.43;;;22.10;;
12792;SDS011;6460;42.684;23.260;2023-01-10T10:50:23;34.30;;;21.53;;
12792;SDS011;6460;42.684;23.260;2023-01-10T10:52:58;38.63;;;23.67;;
12792;SDS011;6460;42.684;23.260;2023-01-10T10:55:28;43.27;;;23.67;;
12792;SDS011;6460;42.684;23.260;2023-01-10T10:57:58;40.33;;;22.40;;
12792;SDS011;6460;42.684;23.260;2023-01-10T11:00:27;45.00;;;24.20;;
12792;SDS011;6460;42.684;23.260;2023-01-10T11:02:56;44.13;;;25.37;;
12792;SDS011;6460;42.684;23.260;2023-01-10T11:05:30;53.20;;;29.23;;
12792;SDS011;6460;42.684;23.260;2023-01-10T11:08:03;60.77;;;34.23;;
12792;SDS011;6460;42.684;23.260;2023-01-10T11:10:34;34.90;;;22.73;;
12792;SDS011;6460;42.684;23.260;2023-01-10T11:13:04;34.47;;;21.50;;
12792;SDS011;6460;42.684;23.260;2023-01-10T11:15:40;35.73;;;21.73;;
12792;SDS011;6460;42.684;23.260;2023-01-10T11:18:10;34.60;;;22.40;;
12792;SDS011;6460;42.684;23.260;2023-01-10T11:20:45;31.60;;;20.77;;
12792;SDS011;6460;42.684;23.260;2023-01-10T11:23:23;35.43;;;22.10;;
12792;SDS011;6460;42.684;23.260;2023-01-10T11:25:55;32.03;;;21.37;;
12792;SDS011;6460;42.684;23.260;2023-01-10T11:28:24;34.13;;;21.77;;
12792;SDS011;6460;42.684;23.260;2023-01-10T11:30:54;34.83;;;21.20;;
12792;SDS011;6460;42.684;23.260;2023-01-10T11:33:24;35.97;;;19.67;;
12792;SDS011;6460;42.684;23.260;2023-01-10T11:35:55;31.70;;;20.17;;
12792;SDS011;6460;42.684;23.260;2023-01-10T11:38:27;32.43;;;21.23;;
12792;SDS011;6460;42.684;23.260;2023-01-10T11:40:56;31.70;;;20.50;;
12792;SDS011;6460;42.684;23.260;2023-01-10T11:43:26;34.00;;;21.17;;
12792;SDS011;6460;42.684;23.260;2023-01-10T11:45:56;56.17;;;34.83;;
12792;SDS011;6460;42.684;23.260;2023-01-10T11:48:29;51.43;;;33.00;;
12792;SDS011;6460;42.684;23.260;2023-01-10T11:51:13;30.87;;;19.33;;
12792;SDS011;6460;42.684;23.260;2023-01-10T11:53:45;29.93;;;19.30;;
12792;SDS011;6460;42.684;23.260;2023-01-10T11:56:21;30.83;;;20.37;;
12792;SDS011;6460;42.684;23.260;2023-01-10T11:58:51;28.07;;;18.37;;
12792;SDS011;6460;42.684;23.260;2023-01-10T12:01:26;30.80;;;20.47;;
12792;SDS011;6460;42.684;23.260;2023-01-10T12:03:57;29.70;;;19.93;;
12792;SDS011;6460;42.684;23.260;2023-01-10T12:06:25;29.67;;;19.67;;
12792;SDS011;6460;42.684;23.260;2023-01-10T12:08:55;28.90;;;19.17;;
12792;SDS011;6460;42.684;23.260;2023-01-10T12:11:23;31.37;;;20.47;;
12792;SDS011;6460;42.684;23.260;2023-01-10T12:13:54;29.07;;;19.67;;
12792;SDS011;6460;42.684;23.260;2023-01-10T12:16:23;30.33;;;18.83;;
12792;SDS011;6460;42.684;23.260;2023-01-10T12:18:51;31.03;;;19.37;;
12792;SDS011;6460;42.684;23.260;2023-01-10T12:21:24;29.40;;;19.50;;
12792;SDS011;6460;42.684;23.260;2023-01-10T12:23:57;27.87;;;18.00;;
12792;SDS011;6460;42.684;23.260;2023-01-10T12:26:28;27.80;;;19.23;;
12792;SDS011;6460;42.684;23.260;2023-01-10T12:28:58;33.97;;;21.03;;
12792;SDS011;6460;42.684;23.260;2023-01-10T12:31:31;32.07;;;20.47;;
12792;SDS011;6460;42.684;23.260;2023-01-10T12:34:02;43.17;;;26.73;;
12792;SDS011;6460;42.684;23.260;2023-01-10T12:36:38;35.73;;;23.00;;
12792;SDS011;6460;42.684;23.260;2023-01-10T12:39:14;31.93;;;20.87;;
12792;SDS011;6460;42.684;23.260;2023-01-10T12:41:51;33.07;;;22.17;;
12792;SDS011;6460;42.684;23.260;2023-01-10T12:44:42;28.67;;;19.93;;
12792;SDS011;6460;42.684;23.260;2023-01-10T12:47:13;28.53;;;19.03;;
12792;SDS011;6460;42.684;23.260;2023-01-10T12:49:48;25.23;;;18.77;;
12792;SDS011;6460;42.684;23.260;2023-01-10T12:52:24;28.03;;;19.50;;
12792;SDS011;6460;42.684;23.260;2023-01-10T12:54:57;34.33;;;21.40;;
12792;SDS011;6460;42.684;23.260;2023-01-10T12:57:27;29.17;;;19.97;;
12792;SDS011;6460;42.684;23.260;2023-01-10T12:59:57;30.83;;;20.63;;
12792;SDS011;6460;42.684;23.260;2023-01-10T13:02:29;28.40;;;19.33;;
12792;SDS011;6460;42.684;23.260;2023-01-10T13:05:05;25.03;;;18.00;;
12792;SDS011;6460;42.684;23.260;2023-01-10T13:07:38;25.20;;;17.20;;
12792;SDS011;6460;42.684;23.260;2023-01-10T13:10:08;25.33;;;18.03;;
12792;SDS011;6460;42.684;23.260;2023-01-10T13:12:41;22.73;;;15.80;;
12792;SDS011;6460;42.684;23.260;2023-01-10T13:15:14;25.03;;;17.93;;
12792;SDS011;6460;42.684;23.260;2023-01-10T13:17:46;22.13;;;15.20;;
12792;SDS011;6460;42.684;23.260;2023-01-10T13:23:20;21.00;;;14.97;;
12792;SDS011;6460;42.684;23.260;2023-01-10T13:25:56;19.13;;;13.53;;
12792;SDS011;6460;42.684;23.260;2023-01-10T13:28:26;17.57;;;13.20;;
12792;SDS011;6460;42.684;23.260;2023-01-10T13:30:54;18.17;;;13.17;;
12792;SDS011;6460;42.684;23.260;2023-01-10T13:33:25;16.70;;;12.63;;
12792;SDS011;6460;42.684;23.260;2023-01-10T13:35:55;13.17;;;11.03;;
12792;SDS011;6460;42.684;23.260;2023-01-10T13:38:26;14.13;;;10.53;;
12792;SDS011;6460;42.684;23.260;2023-01-10T13:41:03;13.00;;;9.97;;
12792;SDS011;6460;42.684;23.260;2023-01-10T13:43:59;13.27;;;10.33;;
12792;SDS011;6460;42.684;23.260;2023-01-10T13:46:42;12.60;;;10.00;;
12792;SDS011;6460;42.684;23.260;2023-01-10T13:52:20;10.03;;;7.77;;
12792;SDS011;6460;42.684;23.260;2023-01-10T13:54:55;9.43;;;7.13;;
12792;SDS011;6460;42.684;23.260;2023-01-10T14:03:35;9.40;;;8.37;;
12792;SDS011;6460;42.684;23.260;2023-01-10T14:06:10;11.67;;;8.43;;
12792;SDS011;6460;42.684;23.260;2023-01-10T14:08:40;10.63;;;7.97;;
12792;SDS011;6460;42.684;23.260;2023-01-10T14:11:14;11.60;;;9.63;;
12792;SDS011;6460;42.684;23.260;2023-01-10T14:13:46;8.73;;;7.50;;
12792;SDS011;6460;42.684;23.260;2023-01-10T14:16:30;7.30;;;5.63;;
12792;SDS011;6460;42.684;23.260;2023-01-10T14:19:00;7.83;;;6.90;;
12792;SDS011;6460;42.684;23.260;2023-01-10T14:21:29;7.40;;;6.23;;
12792;SDS011;6460;42.684;23.260;2023-01-10T14:24:00;17.27;;;11.90;;
12792;SDS011;6460;42.684;23.260;2023-01-10T14:26:30;7.13;;;6.37;;
12792;SDS011;6460;42.684;23.260;2023-01-10T14:29:01;7.57;;;6.10;;
12792;SDS011;6460;42.684;23.260;2023-01-10T14:31:32;3.40;;;3.10;;
12792;SDS011;6460;42.684;23.260;2023-01-10T14:34:02;8.37;;;5.20;;
12792;SDS011;6460;42.684;23.260;2023-01-10T14:36:37;5.53;;;4.47;;
12792;SDS011;6460;42.684;23.260;2023-01-10T14:39:13;6.70;;;4.63;;
12792;SDS011;6460;42.684;23.260;2023-01-10T14:41:42;5.17;;;3.43;;
12792;SDS011;6460;42.684;23.260;2023-01-10T14:44:14;5.57;;;4.27;;
12792;SDS011;6460;42.684;23.260;2023-01-10T14:46:46;4.80;;;4.30;;
12792;SDS011;6460;42.684;23.260;2023-01-10T14:49:21;6.83;;;4.60;;
12792;SDS011;6460;42.684;23.260;2023-01-10T14:51:50;4.93;;;3.97;;
12792;SDS011;6460;42.684;23.260;2023-01-10T14:54:18;12.83;;;8.77;;
12792;SDS011;6460;42.684;23.260;2023-01-10T14:56:48;11.00;;;7.33;;
12792;SDS011;6460;42.684;23.260;2023-01-10T14:59:19;4.40;;;3.63;;
12792;SDS011;6460;42.684;23.260;2023-01-10T15:01:49;5.73;;;3.33;;